Time;durP1;ratioP1;P1;durP2;ratioP2;P2;SDS_P1;SDS_P2;PMS_P1;PMS_P2;Temp;Humidity;BMP_temperature;BMP_pressure;BME280_temperature;BME280_humidity;BME280_pressure;Samples;Min_cycle;Max_cycle;Signal;HPM_P1;HPM_P2
2023/08/25 00:02:11;;;;;;;16.58;14.30;;;;;;;;;;5032133;28;20054;-80
2023/08/25 00:04:57;;;;;;;15.50;13.25;;;;;;;;;;5031732;28;20037;-78
2023/08/25 00:07:42;;;;;;;18.63;13.68;;;;;;;;;;5031050;28;20404;-79
2023/08/25 00:10:28;;;;;;;15.70;13.07;;;;;;;;;;5031450;28;20053;-77
2023/08/25 00:13:14;;;;;;;15.40;13.38;;;;;;;;;;5031485;28;20046;-79
2023/08/25 00:15:59;;;;;;;20.42;13.77;;;;;;;;;;5037679;28;20045;-79
2023/08/25 00:18:45;;;;;;;15.52;12.77;;;;;;;;;;5036908;28;20053;-79
2023/08/25 00:21:30;;;;;;;18.58;13.70;;;;;;;;;;5031684;28;20488;-77
2023/08/25 00:24:16;;;;;;;24.42;13.68;;;;;;;;;;5031901;28;20049;-80
2023/08/25 00:27:02;;;;;;;16.95;13.20;;;;;;;;;;5031211;28;20045;-80
2023/08/25 00:29:48;;;;;;;16.27;13.90;;;;;;;;;;5031559;28;20476;-78
2023/08/25 00:32:33;;;;;;;19.55;13.40;;;;;;;;;;5030395;28;20407;-77
2023/08/25 00:35:20;;;;;;;17.48;13.63;;;;;;;;;;5037364;28;20045;-78
2023/08/25 00:38:06;;;;;;;15.00;13.40;;;;;;;;;;5036422;28;20037;-77
2023/08/25 00:40:52;;;;;;;15.63;14.00;;;;;;;;;;5036797;28;20045;-80
2023/08/25 00:43:39;;;;;;;19.58;13.75;;;;;;;;;;5036969;28;20053;-79
2023/08/25 00:46:24;;;;;;;15.48;13.27;;;;;;;;;;5036508;28;20045;-79
2023/08/25 00:49:09;;;;;;;16.77;13.15;;;;;;;;;;5034599;28;20041;-78
2023/08/25 00:51:55;;;;;;;15.88;13.65;;;;;;;;;;5030397;28;20045;-78
2023/08/25 00:54:40;;;;;;;17.80;13.48;;;;;;;;;;5029843;28;20049;-78
2023/08/25 00:57:26;;;;;;;18.73;13.88;;;;;;;;;;5031064;28;20408;-80
2023/08/25 01:00:12;;;;;;;21.58;13.88;;;;;;;;;;5030674;28;20042;-78
2023/08/25 01:02:57;;;;;;;16.23;14.40;;;;;;;;;;5030973;28;20037;-79
2023/08/25 01:05:43;;;;;;;17.20;13.40;;;;;;;;;;5036701;28;20053;-80
2023/08/25 01:08:29;;;;;;;16.38;14.77;;;;;;;;;;5030423;28;20392;-79
2023/08/25 01:11:42;;;;;;;15.23;13.73;;;;;;;;;;5030823;28;20045;-79
2023/08/25 01:14:43;;;;;;;15.13;13.35;;;;;;;;;;5036133;28;20041;-78
2023/08/25 01:17:58;;;;;;;17.33;13.35;;;;;;;;;;5030356;28;20049;-77
2023/08/25 01:20:46;;;;;;;16.50;13.60;;;;;;;;;;5030672;28;20038;-77
2023/08/25 01:23:41;;;;;;;18.13;14.45;;;;;;;;;;5030552;28;20412;-77
2023/08/25 01:26:29;;;;;;;17.00;14.35;;;;;;;;;;5036125;28;20041;-79
2023/08/25 01:29:15;;;;;;;17.98;13.43;;;;;;;;;;5029755;28;20041;-78
2023/08/25 01:32:01;;;;;;;17.02;13.95;;;;;;;;;;5030567;28;20045;-79
2023/08/25 01:34:46;;;;;;;18.00;13.57;;;;;;;;;;5030714;28;20049;-80
2023/08/25 01:37:40;;;;;;;18.45;14.25;;;;;;;;;;5029827;28;20038;-79
2023/08/25 01:40:38;;;;;;;17.38;13.43;;;;;;;;;;5036184;28;20041;-79
2023/08/25 01:43:26;;;;;;;16.98;13.63;;;;;;;;;;5035053;28;20049;-77
2023/08/25 01:46:15;;;;;;;18.33;13.85;;;;;;;;;;5030363;28;20045;-78
2023/08/25 01:49:02;;;;;;;15.93;13.85;;;;;;;;;;5029369;28;20404;-78
2023/08/25 01:51:48;;;;;;;17.08;14.25;;;;;;;;;;5030424;28;20507;-77
2023/08/25 01:54:33;;;;;;;18.95;13.90;;;;;;;;;;5029919;28;20049;-79
2023/08/25 01:57:19;;;;;;;15.50;13.73;;;;;;;;;;5029646;28;20045;-80
2023/08/25 02:00:05;;;;;;;18.92;13.90;;;;;;;;;;5042997;28;20041;-80
2023/08/25 02:03:00;;;;;;;18.52;14.23;;;;;;;;;;5029761;28;20524;-78
2023/08/25 02:05:47;;;;;;;20.10;14.40;;;;;;;;;;5035354;28;20054;-80
2023/08/25 02:08:33;;;;;;;21.50;14.52;;;;;;;;;;5030210;28;20053;-80
2023/08/25 02:11:20;;;;;;;16.23;14.07;;;;;;;;;;5042655;28;20049;-78
2023/08/25 02:14:05;;;;;;;17.08;13.93;;;;;;;;;;5035927;28;20042;-79
2023/08/25 02:16:51;;;;;;;19.70;14.35;;;;;;;;;;5030309;28;20049;-79
2023/08/25 02:19:37;;;;;;;17.63;14.65;;;;;;;;;;5035537;28;20038;-78
2023/08/25 02:22:23;;;;;;;20.50;14.32;;;;;;;;;;5035309;28;20041;-78
2023/08/25 02:25:08;;;;;;;18.10;14.80;;;;;;;;;;5029801;28;20045;-80
2023/08/25 02:27:54;;;;;;;22.20;15.85;;;;;;;;;;5035647;28;20422;-78
2023/08/25 02:30:39;;;;;;;18.92;14.70;;;;;;;;;;5035759;28;20053;-80
2023/08/25 02:33:25;;;;;;;16.13;14.10;;;;;;;;;;5029721;28;20050;-78
2023/08/25 02:36:11;;;;;;;17.10;14.38;;;;;;;;;;5035776;28;20057;-78
2023/08/25 02:38:56;;;;;;;19.80;14.48;;;;;;;;;;5029347;28;20057;-78
2023/08/25 02:41:42;;;;;;;19.50;14.43;;;;;;;;;;5030344;28;20484;-77
2023/08/25 02:44:29;;;;;;;22.52;14.95;;;;;;;;;;5035556;28;20045;-78
2023/08/25 02:47:15;;;;;;;17.55;14.43;;;;;;;;;;5035309;28;20054;-78
2023/08/25 02:50:00;;;;;;;16.20;14.38;;;;;;;;;;5031108;28;20041;-79
2023/08/25 02:52:46;;;;;;;20.58;14.32;;;;;;;;;;5035022;28;20049;-77
2023/08/25 02:55:31;;;;;;;18.73;14.68;;;;;;;;;;5031337;28;20037;-77
2023/08/25 02:58:16;;;;;;;19.33;14.57;;;;;;;;;;5038587;28;20037;-79
2023/08/25 03:01:11;;;;;;;17.15;15.30;;;;;;;;;;5038571;28;20037;-78
2023/08/25 03:03:57;;;;;;;18.73;14.93;;;;;;;;;;5038885;28;20057;-79
2023/08/25 03:06:44;;;;;;;20.45;15.15;;;;;;;;;;5032308;28;20652;-79
2023/08/25 03:09:29;;;;;;;19.55;14.80;;;;;;;;;;5031233;28;20041;-78
2023/08/25 03:12:15;;;;;;;21.88;15.55;;;;;;;;;;5038653;28;20409;-79
2023/08/25 03:15:01;;;;;;;26.73;14.73;;;;;;;;;;5038698;28;20057;-78
2023/08/25 03:17:47;;;;;;;22.65;14.98;;;;;;;;;;5032510;28;20034;-79
2023/08/25 03:20:36;;;;;;;20.67;14.45;;;;;;;;;;5029476;28;20055;-80
2023/08/25 03:23:24;;;;;;;18.30;14.60;;;;;;;;;;5030018;28;20045;-80
2023/08/25 03:26:11;;;;;;;19.00;14.65;;;;;;;;;;5021643;28;20045;-80
2023/08/25 03:28:57;;;;;;;19.05;15.18;;;;;;;;;;5035474;28;20033;-79
2023/08/25 03:31:43;;;;;;;17.58;15.10;;;;;;;;;;5051401;28;20404;-79
2023/08/25 03:34:29;;;;;;;18.58;14.82;;;;;;;;;;5032974;28;20050;-78
2023/08/25 03:37:15;;;;;;;20.05;15.07;;;;;;;;;;5034824;28;20403;-80
2023/08/25 03:40:00;;;;;;;18.88;15.18;;;;;;;;;;5036010;28;20049;-79
2023/08/25 03:42:46;;;;;;;21.02;14.85;;;;;;;;;;5035930;28;20037;-79
2023/08/25 03:45:34;;;;;;;20.20;15.48;;;;;;;;;;5036836;28;20041;-79
2023/08/25 03:48:20;;;;;;;20.30;15.52;;;;;;;;;;5028997;28;20045;-80
2023/08/25 03:51:06;;;;;;;16.90;14.48;;;;;;;;;;5001071;28;20045;-80
2023/08/25 03:53:51;;;;;;;20.98;14.70;;;;;;;;;;5007720;28;20050;-79
2023/08/25 03:56:38;;;;;;;20.80;14.90;;;;;;;;;;5022215;28;20042;-78
2023/08/25 03:59:23;;;;;;;19.23;15.80;;;;;;;;;;5022065;28;20042;-80
2023/08/25 04:02:09;;;;;;;19.85;14.65;;;;;;;;;;5007897;28;20413;-80
2023/08/25 04:04:55;;;;;;;17.23;14.43;;;;;;;;;;5002436;28;20033;-80
2023/08/25 04:07:40;;;;;;;19.17;13.77;;;;;;;;;;5021562;28;20042;-81
2023/08/25 04:10:26;;;;;;;18.92;14.40;;;;;;;;;;5007902;28;20046;-81
2023/08/25 04:13:12;;;;;;;25.15;14.77;;;;;;;;;;5002567;28;20050;-80
2023/08/25 04:15:59;;;;;;;21.67;14.60;;;;;;;;;;5008492;28;20045;-78
2023/08/25 04:18:46;;;;;;;25.55;15.65;;;;;;;;;;5022081;28;20039;-78
2023/08/25 04:21:31;;;;;;;21.05;15.45;;;;;;;;;;5002205;28;20049;-78
2023/08/25 04:24:17;;;;;;;18.73;15.55;;;;;;;;;;5008036;28;20046;-79
2023/08/25 04:27:02;;;;;;;18.40;15.30;;;;;;;;;;5008003;28;20046;-80
2023/08/25 04:29:49;;;;;;;19.48;14.95;;;;;;;;;;5008076;28;20473;-79
2023/08/25 04:32:34;;;;;;;16.58;13.73;;;;;;;;;;5021357;28;20394;-78
2023/08/25 04:35:20;;;;;;;19.73;14.60;;;;;;;;;;5007955;28;20439;-79
2023/08/25 04:38:07;;;;;;;20.98;13.45;;;;;;;;;;5007387;28;20045;-79
2023/08/25 04:40:53;;;;;;;26.60;14.00;;;;;;;;;;5008021;28;20050;-77
2023/08/25 04:43:40;;;;;;;20.27;13.80;;;;;;;;;;5021342;28;20054;-79
2023/08/25 04:46:28;;;;;;;16.48;13.10;;;;;;;;;;5007290;28;20050;-78
2023/08/25 04:49:15;;;;;;;17.23;13.45;;;;;;;;;;5015908;28;20045;-78
2023/08/25 04:52:00;;;;;;;23.13;14.45;;;;;;;;;;5036900;28;20037;-79
2023/08/25 04:54:47;;;;;;;15.07;12.82;;;;;;;;;;5036650;28;20439;-78
2023/08/25 04:57:32;;;;;;;21.42;13.45;;;;;;;;;;5036668;28;20407;-78
2023/08/25 05:00:18;;;;;;;16.83;12.50;;;;;;;;;;5036164;28;20152;-79
2023/08/25 05:03:04;;;;;;;15.00;12.07;;;;;;;;;;5030788;28;20042;-80
2023/08/25 05:05:50;;;;;;;15.60;12.80;;;;;;;;;;5035870;28;20049;-80
2023/08/25 05:08:36;;;;;;;18.20;12.18;;;;;;;;;;5036338;28;20049;-79
2023/08/25 05:11:22;;;;;;;16.15;12.30;;;;;;;;;;5036402;28;20049;-79
2023/08/25 05:14:07;;;;;;;15.88;11.32;;;;;;;;;;5036080;28;20045;-79
2023/08/25 05:16:53;;;;;;;18.30;11.25;;;;;;;;;;5036350;28;20041;-80
2023/08/25 05:19:46;;;;;;;15.43;11.55;;;;;;;;;;5035558;28;20046;-80
2023/08/25 05:22:32;;;;;;;16.17;12.02;;;;;;;;;;5036376;28;20412;-79
2023/08/25 05:25:20;;;;;;;15.95;10.60;;;;;;;;;;5030417;28;20037;-80
2023/08/25 05:28:06;;;;;;;16.13;10.48;;;;;;;;;;5041212;28;20049;-79
2023/08/25 05:30:52;;;;;;;18.80;9.98;;;;;;;;;;5042783;28;20408;-78
2023/08/25 05:33:45;;;;;;;12.63;9.80;;;;;;;;;;5035558;28;20071;-78
2023/08/25 05:36:47;;;;;;;13.95;11.10;;;;;;;;;;5036327;28;20049;-80
2023/08/25 05:39:32;;;;;;;14.45;10.40;;;;;;;;;;5034869;28;20049;-77
2023/08/25 05:42:18;;;;;;;13.30;10.27;;;;;;;;;;5035562;28;20049;-78
2023/08/25 05:45:04;;;;;;;12.25;10.13;;;;;;;;;;5030399;28;20049;-79
2023/08/25 05:47:49;;;;;;;12.65;10.55;;;;;;;;;;5026850;28;20041;-80
2023/08/25 05:50:35;;;;;;;13.50;10.65;;;;;;;;;;5029560;28;20049;-78
2023/08/25 05:53:20;;;;;;;15.48;10.40;;;;;;;;;;5030423;28;20400;-79
2023/08/25 05:56:06;;;;;;;13.30;10.02;;;;;;;;;;5030357;28;20071;-79
2023/08/25 05:58:52;;;;;;;17.02;10.48;;;;;;;;;;5030035;28;20034;-80
2023/08/25 06:01:37;;;;;;;14.02;10.32;;;;;;;;;;5030041;28;20045;-81
2023/08/25 06:04:23;;;;;;;13.13;9.40;;;;;;;;;;5029558;28;20045;-80
2023/08/25 06:07:26;;;;;;;12.52;9.50;;;;;;;;;;5035076;28;20404;-81
2023/08/25 06:10:12;;;;;;;12.20;10.20;;;;;;;;;;5028853;28;20053;-80
2023/08/25 06:12:58;;;;;;;15.32;10.32;;;;;;;;;;5029671;28;20045;-78
2023/08/25 06:15:43;;;;;;;13.85;9.70;;;;;;;;;;5028977;28;20037;-79
2023/08/25 06:18:29;;;;;;;17.92;10.02;;;;;;;;;;5035284;28;20041;-80
2023/08/25 06:21:14;;;;;;;13.10;10.50;;;;;;;;;;5030047;28;20041;-80
2023/08/25 06:23:59;;;;;;;14.15;10.43;;;;;;;;;;5028105;28;20053;-80
2023/08/25 06:26:45;;;;;;;17.70;10.60;;;;;;;;;;5029163;28;20049;-79
2023/08/25 06:29:31;;;;;;;14.45;10.30;;;;;;;;;;5030159;28;20041;-79
2023/08/25 06:32:16;;;;;;;15.35;10.65;;;;;;;;;;5033694;28;20042;-80
2023/08/25 06:35:02;;;;;;;14.48;10.93;;;;;;;;;;5032291;28;20045;-78
2023/08/25 06:37:49;;;;;;;16.02;11.15;;;;;;;;;;5033889;28;20416;-78
2023/08/25 06:40:35;;;;;;;15.25;10.50;;;;;;;;;;5033534;28;20045;-78
2023/08/25 06:43:20;;;;;;;15.88;11.45;;;;;;;;;;5032103;28;20049;-80
2023/08/25 06:46:07;;;;;;;14.70;10.65;;;;;;;;;;5032514;28;20037;-79
2023/08/25 06:48:52;;;;;;;13.77;10.60;;;;;;;;;;5030994;28;20471;-79
2023/08/25 06:51:38;;;;;;;10.80;9.68;;;;;;;;;;5033212;28;20480;-79
2023/08/25 06:54:26;;;;;;;12.55;10.10;;;;;;;;;;5033481;28;20053;-79
2023/08/25 06:57:12;;;;;;;15.40;9.82;;;;;;;;;;5037957;28;20041;-79
2023/08/25 06:59:57;;;;;;;13.32;10.13;;;;;;;;;;5032191;28;20404;-79
2023/08/25 07:02:43;;;;;;;14.55;10.13;;;;;;;;;;5033121;28;20041;-78
2023/08/25 07:05:27;;;;;;;13.90;10.48;;;;;;;;;;5038881;28;20049;-80
2023/08/25 07:08:13;;;;;;;14.77;9.27;;;;;;;;;;5033997;28;20064;-79
2023/08/25 07:10:59;;;;;;;9.68;8.68;;;;;;;;;;5032956;28;20046;-80
2023/08/25 07:13:45;;;;;;;11.00;9.00;;;;;;;;;;5033617;28;20045;-81
2023/08/25 07:16:31;;;;;;;12.88;10.00;;;;;;;;;;5033374;28;20041;-80
2023/08/25 07:19:16;;;;;;;14.43;10.15;;;;;;;;;;5032559;28;20041;-79
2023/08/25 07:22:02;;;;;;;14.10;9.43;;;;;;;;;;5033719;28;20491;-80
2023/08/25 07:24:50;;;;;;;14.88;9.45;;;;;;;;;;5038410;28;20041;-79
2023/08/25 07:27:35;;;;;;;13.93;9.48;;;;;;;;;;5031631;28;20053;-80
2023/08/25 07:30:21;;;;;;;12.30;9.15;;;;;;;;;;5032707;28;20045;-80
2023/08/25 07:33:07;;;;;;;12.30;8.88;;;;;;;;;;5032491;28;20488;-78
2023/08/25 07:35:52;;;;;;;12.93;9.02;;;;;;;;;;5032237;28;20049;-78
2023/08/25 07:38:38;;;;;;;13.48;8.93;;;;;;;;;;5032498;28;20038;-77
2023/08/25 07:41:23;;;;;;;14.90;9.20;;;;;;;;;;5031141;28;20050;-78
2023/08/25 07:44:09;;;;;;;12.30;9.00;;;;;;;;;;5032145;28;20046;-78
2023/08/25 07:46:54;;;;;;;15.13;8.90;;;;;;;;;;5032065;28;20041;-80
2023/08/25 07:49:39;;;;;;;10.40;8.13;;;;;;;;;;5034745;28;20045;-81
2023/08/25 07:52:24;;;;;;;14.48;8.80;;;;;;;;;;5032415;28;20396;-82
2023/08/25 07:55:12;;;;;;;12.32;9.23;;;;;;;;;;5031792;28;20041;-81
2023/08/25 07:57:57;;;;;;;14.73;9.15;;;;;;;;;;5031091;28;20041;-80
2023/08/25 08:00:43;;;;;;;10.88;9.35;;;;;;;;;;5030816;28;20041;-82
2023/08/25 08:03:28;;;;;;;11.25;9.15;;;;;;;;;;5031548;28;20053;-81
2023/08/25 08:06:13;;;;;;;14.00;8.43;;;;;;;;;;5030972;28;20408;-83
2023/08/25 08:09:00;;;;;;;13.57;8.65;;;;;;;;;;5031010;28;20034;-82
2023/08/25 08:11:45;;;;;;;10.98;7.93;;;;;;;;;;5031834;28;20048;-82
2023/08/25 08:14:35;;;;;;;13.55;8.73;;;;;;;;;;5031889;28;20396;-82
2023/08/25 08:17:20;;;;;;;10.75;8.60;;;;;;;;;;5031812;28;20038;-81
2023/08/25 08:20:09;;;;;;;11.77;8.55;;;;;;;;;;5031310;28;20041;-80
2023/08/25 08:22:54;;;;;;;9.50;8.50;;;;;;;;;;5031273;28;20049;-80
2023/08/25 08:25:40;;;;;;;10.88;8.55;;;;;;;;;;5037453;28;20054;-82
2023/08/25 08:28:26;;;;;;;12.60;8.77;;;;;;;;;;5030113;28;20069;-81
2023/08/25 08:31:18;;;;;;;13.00;8.48;;;;;;;;;;5030209;28;20480;-81
2023/08/25 08:34:03;;;;;;;13.57;8.57;;;;;;;;;;5030040;28;20060;-80
2023/08/25 08:36:48;;;;;;;13.00;8.35;;;;;;;;;;5036775;28;20045;-79
2023/08/25 08:39:34;;;;;;;12.85;8.98;;;;;;;;;;5031036;28;20042;-80
2023/08/25 08:42:19;;;;;;;14.13;8.93;;;;;;;;;;5031113;28;20045;-80
2023/08/25 08:45:09;;;;;;;14.55;9.32;;;;;;;;;;5031250;28;20041;-79
2023/08/25 08:47:55;;;;;;;11.77;8.30;;;;;;;;;;5031508;28;20042;-79
2023/08/25 08:50:43;;;;;;;11.70;8.23;;;;;;;;;;5031132;28;20053;-81
2023/08/25 08:53:30;;;;;;;12.75;8.77;;;;;;;;;;5029439;28;20045;-78
2023/08/25 08:56:16;;;;;;;10.13;7.80;;;;;;;;;;5030072;28;20404;-79
2023/08/25 08:59:05;;;;;;;15.13;7.85;;;;;;;;;;5030660;28;20041;-79
2023/08/25 09:01:51;;;;;;;14.70;8.15;;;;;;;;;;5030161;28;20041;-82
2023/08/25 09:04:38;;;;;;;10.77;7.53;;;;;;;;;;5029981;28;20033;-80
2023/08/25 09:07:31;;;;;;;13.20;6.95;;;;;;;;;;5030415;28;20049;-84
2023/08/25 09:10:16;;;;;;;16.02;7.53;;;;;;;;;;5030165;28;20504;-80
2023/08/25 09:13:02;;;;;;;12.80;7.03;;;;;;;;;;5036366;28;20045;-81
2023/08/25 09:15:51;;;;;;;13.23;7.10;;;;;;;;;;5030783;28;20045;-81
2023/08/25 09:18:37;;;;;;;13.50;7.88;;;;;;;;;;5029488;28;20037;-85
2023/08/25 09:21:22;;;;;;;11.82;7.40;;;;;;;;;;5022467;28;20037;-81
2023/08/25 09:24:08;;;;;;;12.43;9.00;;;;;;;;;;5030049;28;20406;-80
2023/08/25 09:26:55;;;;;;;175.30;136.20;;;;;;;;;;5035711;28;20053;-80
2023/08/25 09:29:41;;;;;;;191.65;133.10;;;;;;;;;;5041964;28;20374;-81
2023/08/25 09:32:28;;;;;;;241.50;191.25;;;;;;;;;;5029960;28;20041;-80
2023/08/25 09:35:18;;;;;;;9.45;7.40;;;;;;;;;;5030194;28;20041;-80
2023/08/25 09:38:04;;;;;;;19.25;7.07;;;;;;;;;;5028966;28;20050;-80
2023/08/25 09:40:49;;;;;;;8.95;6.82;;;;;;;;;;5028996;28;20035;-80
2023/08/25 09:43:35;;;;;;;10.88;7.68;;;;;;;;;;5028921;28;21484;-79
2023/08/25 09:46:36;;;;;;;34.03;29.55;;;;;;;;;;5024157;28;20042;-80
2023/08/25 09:49:22;;;;;;;15.80;8.57;;;;;;;;;;5028167;28;21241;-79
2023/08/25 09:52:12;;;;;;;12.40;7.20;;;;;;;;;;5046258;28;20045;-80
2023/08/25 09:54:57;;;;;;;18.67;7.50;;;;;;;;;;5027983;28;20057;-80
2023/08/25 09:57:48;;;;;;;10.57;6.28;;;;;;;;;;5034923;28;20049;-79
2023/08/25 10:00:35;;;;;;;11.15;6.93;;;;;;;;;;5029431;28;20041;-79
2023/08/25 10:03:22;;;;;;;12.20;7.50;;;;;;;;;;5029332;28;20058;-79
2023/08/25 10:06:08;;;;;;;9.60;7.22;;;;;;;;;;5032375;28;20384;-79
2023/08/25 10:08:55;;;;;;;8.70;5.47;;;;;;;;;;5033319;28;20041;-80
2023/08/25 10:11:44;;;;;;;8.52;5.07;;;;;;;;;;5038694;28;20397;-82
2023/08/25 10:14:32;;;;;;;7.22;5.97;;;;;;;;;;5032403;28;20049;-81
2023/08/25 10:17:18;;;;;;;8.57;6.45;;;;;;;;;;5033209;28;20046;-81
2023/08/25 10:20:08;;;;;;;12.00;6.20;;;;;;;;;;5034098;28;20041;-81
2023/08/25 10:22:55;;;;;;;8.57;5.63;;;;;;;;;;5039305;28;20406;-81
2023/08/25 10:25:40;;;;;;;9.13;6.28;;;;;;;;;;5033360;28;20485;-80
2023/08/25 10:28:26;;;;;;;7.70;5.88;;;;;;;;;;5033426;28;20046;-81
2023/08/25 10:31:13;;;;;;;14.35;6.25;;;;;;;;;;5033715;28;20411;-81
2023/08/25 10:33:59;;;;;;;9.82;5.38;;;;;;;;;;5032564;28;20033;-80
2023/08/25 10:36:45;;;;;;;7.97;5.15;;;;;;;;;;5032307;28;21767;-80
2023/08/25 10:39:59;;;;;;;9.60;6.50;;;;;;;;;;5038923;28;20033;-81
2023/08/25 10:42:44;;;;;;;8.60;6.30;;;;;;;;;;5039407;28;20053;-81
2023/08/25 10:45:35;;;;;;;7.95;6.18;;;;;;;;;;5033480;28;20037;-80
2023/08/25 10:48:23;;;;;;;7.22;6.28;;;;;;;;;;5033632;28;20045;-82
2023/08/25 10:51:16;;;;;;;8.57;6.57;;;;;;;;;;5031498;28;20049;-81
2023/08/25 10:54:02;;;;;;;10.63;6.57;;;;;;;;;;5044753;28;20424;-81
2023/08/25 10:56:48;;;;;;;7.18;6.32;;;;;;;;;;5030848;28;20424;-80
2023/08/25 10:59:36;;;;;;;8.05;6.20;;;;;;;;;;5030264;28;20041;-80
2023/08/25 11:02:36;;;;;;;12.18;6.35;;;;;;;;;;5032786;28;20041;-81
2023/08/25 11:05:31;;;;;;;9.05;6.60;;;;;;;;;;5032765;28;20026;-81
2023/08/25 11:08:26;;;;;;;10.43;6.93;;;;;;;;;;5031918;28;20399;-81
2023/08/25 11:11:15;;;;;;;12.38;6.68;;;;;;;;;;5032492;28;20045;-80
2023/08/25 11:14:00;;;;;;;8.02;6.22;;;;;;;;;;5024385;28;20045;-81
2023/08/25 11:16:47;;;;;;;8.32;6.93;;;;;;;;;;5031584;28;20057;-80
2023/08/25 11:19:44;;;;;;;7.80;6.53;;;;;;;;;;5031644;28;20400;-79
2023/08/25 11:22:33;;;;;;;9.43;6.63;;;;;;;;;;5032498;28;20496;-83
2023/08/25 11:25:18;;;;;;;9.02;6.97;;;;;;;;;;5032669;28;20050;-79
2023/08/25 11:28:04;;;;;;;9.88;6.93;;;;;;;;;;5031728;28;20404;-79
2023/08/25 11:30:50;;;;;;;9.80;6.50;;;;;;;;;;5024533;28;20053;-81
2023/08/25 11:33:36;;;;;;;8.30;6.80;;;;;;;;;;5032561;28;20045;-80
2023/08/25 11:36:25;;;;;;;8.15;6.75;;;;;;;;;;5032222;28;20037;-81
2023/08/25 11:39:16;;;;;;;10.52;6.65;;;;;;;;;;5037869;28;20412;-79
2023/08/25 11:42:01;;;;;;;8.07;6.55;;;;;;;;;;5037933;28;20049;-81
2023/08/25 11:44:47;;;;;;;9.95;6.68;;;;;;;;;;5031495;28;20045;-81
2023/08/25 11:47:33;;;;;;;8.00;6.82;;;;;;;;;;5032283;28;20037;-83
2023/08/25 11:50:18;;;;;;;10.30;7.10;;;;;;;;;;5030909;28;20464;-81
2023/08/25 11:53:04;;;;;;;9.57;6.70;;;;;;;;;;5031665;28;20037;-80
2023/08/25 11:56:03;;;;;;;8.77;6.82;;;;;;;;;;5032447;28;20389;-80
2023/08/25 11:58:50;;;;;;;10.38;6.45;;;;;;;;;;5034859;28;20041;-80
2023/08/25 12:01:36;;;;;;;9.18;6.47;;;;;;;;;;5035356;28;20037;-81
2023/08/25 12:04:23;;;;;;;11.45;7.00;;;;;;;;;;5037342;28;20034;-81
2023/08/25 12:07:08;;;;;;;8.70;6.93;;;;;;;;;;5036211;28;20034;-82
2023/08/25 12:09:56;;;;;;;8.63;6.65;;;;;;;;;;5036179;28;20480;-81
2023/08/25 12:12:41;;;;;;;9.85;6.90;;;;;;;;;;5043174;28;20049;-80
2023/08/25 12:15:38;;;;;;;8.00;7.20;;;;;;;;;;5043132;28;20049;-80
2023/08/25 12:18:34;;;;;;;10.07;7.50;;;;;;;;;;5037311;28;20247;-82
2023/08/25 12:21:19;;;;;;;8.75;7.00;;;;;;;;;;5032208;28;20046;-80
2023/08/25 12:24:05;;;;;;;10.45;6.93;;;;;;;;;;5031588;28;20046;-82
2023/08/25 12:26:50;;;;;;;11.30;6.93;;;;;;;;;;5031504;28;20477;-81
2023/08/25 12:29:36;;;;;;;10.85;6.80;;;;;;;;;;5031170;28;20416;-81
2023/08/25 12:32:21;;;;;;;9.43;6.60;;;;;;;;;;5031403;28;20041;-81
2023/08/25 12:35:07;;;;;;;10.68;6.65;;;;;;;;;;5036838;28;20037;-81
2023/08/25 12:37:53;;;;;;;8.48;6.70;;;;;;;;;;5030934;28;20041;-80
2023/08/25 12:40:39;;;;;;;10.95;7.53;;;;;;;;;;5029917;28;20053;-81
2023/08/25 12:43:24;;;;;;;8.85;6.88;;;;;;;;;;5031180;28;20625;-82
2023/08/25 12:46:09;;;;;;;7.63;6.63;;;;;;;;;;5030853;28;20396;-81
2023/08/25 12:48:55;;;;;;;10.23;6.70;;;;;;;;;;5034754;28;20473;-80
2023/08/25 12:51:41;;;;;;;11.13;6.85;;;;;;;;;;5031042;28;20432;-80
2023/08/25 12:54:26;;;;;;;9.77;6.80;;;;;;;;;;5030477;28;20033;-79
2023/08/25 12:57:12;;;;;;;9.65;6.82;;;;;;;;;;5031061;28;20045;-79
2023/08/25 12:59:57;;;;;;;10.23;6.63;;;;;;;;;;5029867;28;20049;-79
2023/08/25 13:02:43;;;;;;;9.20;7.07;;;;;;;;;;5036497;28;20050;-81
2023/08/25 13:05:29;;;;;;;9.00;6.70;;;;;;;;;;5030858;28;20041;-79
2023/08/25 13:08:15;;;;;;;10.65;6.47;;;;;;;;;;5029982;28;20496;-79
2023/08/25 13:11:00;;;;;;;8.90;6.60;;;;;;;;;;5030811;28;20049;-81
2023/08/25 13:13:46;;;;;;;13.98;6.93;;;;;;;;;;5030742;28;20049;-79
2023/08/25 13:16:32;;;;;;;15.20;6.75;;;;;;;;;;5030117;28;20037;-79
2023/08/25 13:19:18;;;;;;;8.45;6.10;;;;;;;;;;5030019;28;20480;-79
2023/08/25 13:22:03;;;;;;;8.88;6.50;;;;;;;;;;5029221;28;20053;-79
2023/08/25 13:24:48;;;;;;;7.93;6.63;;;;;;;;;;5029581;28;20427;-80
2023/08/25 13:27:37;;;;;;;9.80;6.40;;;;;;;;;;5029680;28;20045;-80
2023/08/25 13:30:23;;;;;;;8.63;6.50;;;;;;;;;;5029535;28;20504;-79
2023/08/25 13:33:08;;;;;;;8.65;6.75;;;;;;;;;;5029720;28;20042;-79
2023/08/25 13:35:55;;;;;;;11.00;7.15;;;;;;;;;;5029892;28;20037;-79
2023/08/25 13:38:41;;;;;;;9.85;6.88;;;;;;;;;;5029533;28;20049;-79
2023/08/25 13:41:26;;;;;;;11.57;6.60;;;;;;;;;;5029817;28;20045;-79
2023/08/25 13:44:12;;;;;;;15.05;7.20;;;;;;;;;;5029328;28;20396;-80
2023/08/25 13:46:57;;;;;;;12.77;6.72;;;;;;;;;;5028191;28;20092;-80
2023/08/25 13:49:43;;;;;;;11.82;6.82;;;;;;;;;;5029773;28;20053;-79
2023/08/25 13:52:28;;;;;;;7.13;6.40;;;;;;;;;;5035747;28;20041;-80
2023/08/25 13:55:14;;;;;;;9.30;6.57;;;;;;;;;;5035885;28;20405;-79
2023/08/25 13:57:59;;;;;;;8.25;6.43;;;;;;;;;;5029702;28;20042;-79
2023/08/25 14:00:45;;;;;;;7.88;6.53;;;;;;;;;;5028761;28;20038;-77
2023/08/25 14:03:32;;;;;;;9.90;6.93;;;;;;;;;;5028105;28;20037;-79
2023/08/25 14:06:17;;;;;;;9.55;6.38;;;;;;;;;;5029330;28;20037;-79
2023/08/25 14:09:04;;;;;;;9.30;6.28;;;;;;;;;;5029745;28;20045;-79
2023/08/25 14:11:50;;;;;;;8.70;6.60;;;;;;;;;;5029555;28;20049;-79
2023/08/25 14:14:36;;;;;;;13.45;6.32;;;;;;;;;;5029776;28;20046;-80
2023/08/25 14:17:22;;;;;;;9.70;6.78;;;;;;;;;;5029585;28;20037;-80
2023/08/25 14:20:09;;;;;;;6.93;6.25;;;;;;;;;;5028724;28;20045;-80
2023/08/25 14:22:54;;;;;;;10.45;6.88;;;;;;;;;;5029905;28;20046;-79
2023/08/25 14:25:39;;;;;;;10.10;6.75;;;;;;;;;;5028954;28;20053;-78
2023/08/25 14:28:25;;;;;;;8.52;6.35;;;;;;;;;;5034967;28;20045;-78
2023/08/25 14:31:10;;;;;;;7.22;6.40;;;;;;;;;;5028881;28;20045;-78
2023/08/25 14:33:56;;;;;;;7.75;6.15;;;;;;;;;;5035027;28;20038;-78
2023/08/25 14:36:41;;;;;;;8.80;6.10;;;;;;;;;;5029146;28;20053;-78
2023/08/25 14:39:27;;;;;;;8.80;6.75;;;;;;;;;;5034591;28;20041;-78
2023/08/25 14:42:13;;;;;;;11.43;7.13;;;;;;;;;;5034781;28;20041;-79
2023/08/25 14:44:59;;;;;;;11.50;7.18;;;;;;;;;;5029370;28;20053;-79
2023/08/25 14:47:44;;;;;;;8.38;6.40;;;;;;;;;;5029296;28;20037;-79
2023/08/25 14:50:29;;;;;;;9.05;6.80;;;;;;;;;;5029686;28;20042;-79
2023/08/25 14:53:15;;;;;;;7.25;6.30;;;;;;;;;;5032469;28;20054;-80
2023/08/25 14:56:00;;;;;;;11.75;6.90;;;;;;;;;;5038733;28;20045;-79
2023/08/25 14:58:45;;;;;;;10.43;7.43;;;;;;;;;;5030988;28;20037;-77
2023/08/25 15:01:31;;;;;;;9.30;7.28;;;;;;;;;;5032720;28;20057;-79
2023/08/25 15:04:16;;;;;;;8.85;6.97;;;;;;;;;;5032939;28;20132;-79
2023/08/25 15:07:03;;;;;;;9.65;6.72;;;;;;;;;;5037768;28;20041;-79
2023/08/25 15:09:48;;;;;;;9.18;6.57;;;;;;;;;;5038679;28;20072;-79
2023/08/25 15:12:34;;;;;;;10.40;7.07;;;;;;;;;;5032137;28;20041;-79
2023/08/25 15:15:19;;;;;;;9.02;6.82;;;;;;;;;;5032646;28;20042;-79
2023/08/25 15:18:05;;;;;;;7.95;6.47;;;;;;;;;;5032641;28;20488;-79
2023/08/25 15:21:03;;;;;;;10.27;6.88;;;;;;;;;;5032951;28;20037;-80
2023/08/25 15:23:48;;;;;;;7.63;6.82;;;;;;;;;;5032827;28;20033;-79
2023/08/25 15:26:33;;;;;;;11.30;6.85;;;;;;;;;;5032939;28;20053;-79
2023/08/25 15:29:19;;;;;;;13.68;7.20;;;;;;;;;;5031281;28;20045;-80
2023/08/25 15:32:05;;;;;;;9.45;7.18;;;;;;;;;;5032559;28;20042;-79
2023/08/25 15:34:50;;;;;;;9.90;6.85;;;;;;;;;;5031061;28;20052;-79
2023/08/25 15:37:36;;;;;;;7.55;6.32;;;;;;;;;;5031326;28;20041;-79
2023/08/25 15:40:22;;;;;;;11.13;7.20;;;;;;;;;;5031571;28;20045;-79
2023/08/25 15:43:08;;;;;;;9.82;7.82;;;;;;;;;;5031887;28;20041;-79
2023/08/25 15:45:54;;;;;;;12.20;7.18;;;;;;;;;;5030726;28;20045;-78
2023/08/25 15:48:39;;;;;;;9.70;7.28;;;;;;;;;;5031577;28;20053;-79
2023/08/25 15:51:25;;;;;;;12.45;7.53;;;;;;;;;;5030700;28;20038;-80
2023/08/25 15:54:10;;;;;;;10.40;7.70;;;;;;;;;;5031347;28;20042;-82
2023/08/25 15:56:56;;;;;;;12.48;6.53;;;;;;;;;;5036438;28;20041;-80
2023/08/25 15:59:45;;;;;;;11.85;6.93;;;;;;;;;;5030883;28;20034;-79
2023/08/25 16:02:30;;;;;;;10.05;7.88;;;;;;;;;;5035909;28;20046;-81
2023/08/25 16:05:15;;;;;;;11.80;8.45;;;;;;;;;;5031447;28;20041;-78
2023/08/25 16:08:01;;;;;;;10.43;8.27;;;;;;;;;;5027642;28;20037;-80
2023/08/25 16:10:47;;;;;;;10.95;7.55;;;;;;;;;;5030992;28;20045;-78
2023/08/25 16:13:34;;;;;;;11.30;7.85;;;;;;;;;;5029764;28;20409;-80
2023/08/25 16:16:20;;;;;;;11.93;7.82;;;;;;;;;;5031261;28;20618;-79
2023/08/25 16:19:05;;;;;;;9.30;7.53;;;;;;;;;;5030969;28;20045;-78
2023/08/25 16:21:51;;;;;;;12.90;7.97;;;;;;;;;;5034238;28;20045;-78
2023/08/25 16:24:37;;;;;;;9.27;7.65;;;;;;;;;;5028450;28;20380;-80